createdAt,value
2023-03-06T00:00:24.712Z,101151.75
2023-03-06T00:02:52.286Z,101154.84
2023-03-06T00:05:19.598Z,101151.06
2023-03-06T00:07:46.437Z,101146.03
2023-03-06T00:10:18.422Z,101134.94
2023-03-06T00:12:45.199Z,101139.63
2023-03-06T00:15:13.917Z,101138.50
2023-03-06T00:17:40.866Z,101136.53
2023-03-06T00:20:08.469Z,101136.75
2023-03-06T00:22:35.069Z,101132.78
2023-03-06T00:25:01.704Z,101127.75
2023-03-06T00:27:28.297Z,101124.31
2023-03-06T00:29:59.397Z,101115.66
2023-03-06T00:32:26.802Z,101115.28
2023-03-06T00:34:55.055Z,101115.75
2023-03-06T00:37:23.173Z,101115.19
2023-03-06T00:39:49.947Z,101106.94
2023-03-06T00:42:17.954Z,101099.06
2023-03-06T00:44:44.590Z,101092.22
2023-03-06T00:47:11.428Z,101083.78
2023-03-06T00:49:38.644Z,101085.38
2023-03-06T00:52:05.753Z,101081.94
2023-03-06T00:54:32.253Z,101083.22
2023-03-06T00:56:58.847Z,101081.59
2023-03-06T00:59:25.545Z,101077.81
2023-03-06T01:01:52.156Z,101074.63
2023-03-06T01:04:19.048Z,101070.63
2023-03-06T01:06:46.206Z,101070.63
2023-03-06T01:09:12.741Z,101062.97
2023-03-06T01:11:39.656Z,101054.31
2023-03-06T01:14:06.193Z,101056.13
2023-03-06T01:16:32.815Z,101056.56
2023-03-06T01:18:59.643Z,101054.16
2023-03-06T01:21:26.346Z,101049.97
2023-03-06T01:23:52.851Z,101044.13
2023-03-06T01:26:19.440Z,101046.75
2023-03-06T01:28:46.002Z,101044.56
2023-03-06T01:31:12.643Z,101047.66
2023-03-06T01:33:39.186Z,101051.53
2023-03-06T01:36:08.666Z,101043.66
2023-03-06T01:38:36.137Z,101046.50
2023-03-06T01:41:05.288Z,101046.72
2023-03-06T01:43:34.794Z,101050.03
2023-03-06T01:46:28.821Z,101043.84
2023-03-06T01:48:56.845Z,101055.38
2023-03-06T01:51:28.608Z,101046.34
2023-03-06T01:53:57.122Z,101044.41
2023-03-06T01:56:25.057Z,101034.94
2023-03-06T01:58:52.045Z,101035.16
2023-03-06T02:01:19.449Z,101033.19
2023-03-06T02:03:47.468Z,101027.63
2023-03-06T02:06:19.713Z,101020.97
2023-03-06T02:08:49.494Z,101014.56
2023-03-06T02:11:22.102Z,101018.44
2023-03-06T02:13:50.731Z,101009.78
2023-03-06T02:16:20.052Z,101010.81
2023-03-06T02:18:47.363Z,101017.31
2023-03-06T02:21:21.862Z,101012.28
2023-03-06T02:24:00.109Z,101011.13
2023-03-06T02:26:28.789Z,101014.78
2023-03-06T02:28:57.563Z,101021.28
2023-03-06T02:31:30.293Z,101011.22
2023-03-06T02:34:28.594Z,101005.38
2023-03-06T02:37:09.023Z,101003.81
2023-03-06T02:39:41.554Z,101002.19
2023-03-06T02:42:08.165Z,101002.19
2023-03-06T02:44:36.187Z,100999.00
2023-03-06T02:47:02.734Z,100998.78
2023-03-06T02:49:29.268Z,100986.69
2023-03-06T02:51:56.054Z,100980.44
2023-03-06T02:54:22.626Z,100982.00
2023-03-06T02:56:49.195Z,100972.34
2023-03-06T02:59:15.809Z,100965.28
2023-03-06T03:01:42.388Z,100970.28
2023-03-06T03:04:09.311Z,100962.19
2023-03-06T03:06:35.975Z,100955.94
2023-03-06T03:09:02.444Z,100948.06
2023-03-06T03:11:29.020Z,100952.28
2023-03-06T03:13:56.854Z,100953.88
2023-03-06T03:16:24.014Z,100937.13
2023-03-06T03:18:52.814Z,100934.50
2023-03-06T03:21:19.764Z,100942.38
2023-03-06T03:23:46.484Z,100933.47
2023-03-06T03:26:20.405Z,100930.88
2023-03-06T03:28:47.142Z,100927.00
2023-03-06T03:31:14.045Z,100922.31
2023-03-06T03:33:41.358Z,100923.09
2023-03-06T03:36:08.413Z,100921.31
2023-03-06T03:38:35.579Z,100919.47
2023-03-06T03:41:03.177Z,100913.19
2023-03-06T03:43:30.048Z,100916.38
2023-03-06T03:45:57.654Z,100911.97
2023-03-06T03:48:25.244Z,100911.97
2023-03-06T03:50:51.977Z,100910.72
2023-03-06T03:53:18.609Z,100898.16
2023-03-06T03:55:47.120Z,100896.91
2023-03-06T03:58:13.648Z,100901.94
2023-03-06T04:00:40.331Z,100903.53
2023-03-06T04:03:06.895Z,100893.28
2023-03-06T04:05:33.944Z,100900.91
2023-03-06T04:08:03.463Z,100897.25
2023-03-06T04:10:32.559Z,100899.88
2023-03-06T04:12:59.069Z,100889.41
2023-03-06T04:15:25.858Z,100893.59
2023-03-06T04:17:52.610Z,100888.13
2023-03-06T04:20:19.431Z,100883.09
2023-03-06T04:22:46.064Z,100880.47
2023-03-06T04:25:13.930Z,100887.91
2023-03-06T04:27:40.804Z,100875.00
2023-03-06T04:30:08.419Z,100879.00
2023-03-06T04:32:35.477Z,100870.13
2023-03-06T04:35:02.367Z,100870.13
2023-03-06T04:37:29.129Z,100868.28
2023-03-06T04:39:56.805Z,100862.00
2023-03-06T04:42:23.698Z,100867.25
2023-03-06T04:44:50.097Z,100864.88
2023-03-06T04:47:19.047Z,100867.25
2023-03-06T04:49:46.010Z,100854.97
2023-03-06T04:52:12.515Z,100858.38
2023-03-06T04:54:39.306Z,100861.22
2023-03-06T04:57:05.867Z,100847.88
2023-03-06T04:59:32.632Z,100849.47
2023-03-06T05:01:59.260Z,100852.09
2023-03-06T05:04:25.926Z,100853.91
2023-03-06T05:06:52.671Z,100846.63
2023-03-06T05:09:19.378Z,100849.00
2023-03-06T05:11:46.146Z,100854.03
2023-03-06T05:14:12.782Z,100843.28
2023-03-06T05:16:39.537Z,100845.69
2023-03-06T05:19:06.051Z,100840.22
2023-03-06T05:21:32.705Z,100847.06
2023-03-06T05:23:59.429Z,100843.19
2023-03-06T05:26:26.034Z,100842.94
2023-03-06T05:28:53.319Z,100847.97
2023-03-06T05:31:19.933Z,100845.91
2023-03-06T05:33:46.706Z,100840.44
2023-03-06T05:36:13.454Z,100832.34
2023-03-06T05:38:39.994Z,100840.78
2023-03-06T05:41:06.516Z,100827.69
2023-03-06T05:43:32.964Z,100829.25
2023-03-06T05:46:05.324Z,100829.25
2023-03-06T05:48:32.724Z,100833.47
2023-03-06T05:51:00.768Z,100819.53
2023-03-06T05:53:29.187Z,100818.75
2023-03-06T05:56:06.025Z,100822.44
2023-03-06T05:58:34.186Z,100832.09
2023-03-06T06:01:07.695Z,100819.22
2023-03-06T06:03:34.229Z,100828.91
2023-03-06T06:06:04.414Z,100832.34
2023-03-06T06:08:31.066Z,100830.97
2023-03-06T06:10:57.684Z,100835.41
2023-03-06T06:13:24.333Z,100832.22
2023-03-06T06:15:50.924Z,100841.94
2023-03-06T06:18:17.469Z,100843.53
2023-03-06T06:20:44.268Z,100841.94
2023-03-06T06:23:11.612Z,100846.13
2023-03-06T06:25:38.892Z,100847.75
2023-03-06T06:28:05.729Z,100861.66
2023-03-06T06:30:33.419Z,100856.19
2023-03-06T06:33:00.273Z,100853.09
2023-03-06T06:35:27.108Z,100854.72
2023-03-06T06:37:53.733Z,100847.41
2023-03-06T06:40:21.502Z,100847.63
2023-03-06T06:42:48.156Z,100853.44
2023-03-06T06:45:14.849Z,100850.34
2023-03-06T06:47:41.921Z,100849.31
2023-03-06T06:50:13.180Z,100855.72
2023-03-06T06:52:40.737Z,100846.78
2023-03-06T06:55:08.688Z,100844.75
2023-03-06T06:57:35.298Z,100848.75
2023-03-06T07:00:02.169Z,100849.06
2023-03-06T07:02:28.733Z,100855.69
2023-03-06T07:05:05.086Z,100848.63
2023-03-06T07:07:35.032Z,100846.56
2023-03-06T07:10:01.695Z,100862.88
2023-03-06T07:12:28.235Z,100863.66
2023-03-06T07:14:54.897Z,100861.03
2023-03-06T07:17:21.545Z,100867.91
2023-03-06T07:19:48.562Z,100868.34
2023-03-06T07:22:15.264Z,100868.47
2023-03-06T07:24:42.271Z,100866.84
2023-03-06T07:27:08.897Z,100870.06
2023-03-06T07:29:35.602Z,100870.63
2023-03-06T07:32:02.301Z,100866.72
2023-03-06T07:34:29.026Z,100876.78
2023-03-06T07:36:55.764Z,100870.59
2023-03-06T07:39:22.468Z,100875.94
2023-03-06T07:41:49.079Z,100867.91
2023-03-06T07:44:15.774Z,100878.63
2023-03-06T07:46:42.497Z,100876.19
2023-03-06T07:49:09.261Z,100871.13
2023-03-06T07:51:36.072Z,100867.31
2023-03-06T07:54:02.809Z,100865.88
2023-03-06T07:56:29.779Z,100871.25
2023-03-06T07:58:57.179Z,100868.31
2023-03-06T08:01:24.374Z,100864.78
2023-03-06T08:03:51.612Z,100878.59
2023-03-06T08:06:23.775Z,100877.53
2023-03-06T08:08:51.470Z,100867.28
2023-03-06T08:11:20.946Z,100870.78
2023-03-06T08:13:48.855Z,100875.88
2023-03-06T08:16:15.981Z,100883.09
2023-03-06T08:18:45.061Z,100878.72
2023-03-06T08:21:16.452Z,100872.50
2023-03-06T08:23:44.050Z,100874.66
2023-03-06T08:26:17.404Z,100883.47
2023-03-06T08:28:44.673Z,100877.16
2023-03-06T08:31:28.897Z,100875.88
2023-03-06T08:33:56.858Z,100872.53
2023-03-06T08:36:24.078Z,100875.16
2023-03-06T08:38:51.043Z,100871.25
2023-03-06T08:41:17.554Z,100872.59
2023-03-06T08:43:44.166Z,100873.38
2023-03-06T08:46:11.978Z,100871.00
2023-03-06T08:48:39.232Z,100871.59
2023-03-06T08:51:08.259Z,100861.63
2023-03-06T08:53:43.218Z,100872.22
2023-03-06T08:56:22.981Z,100872.72
2023-03-06T08:58:50.809Z,100866.47
2023-03-06T09:01:22.529Z,100865.69
2023-03-06T09:03:49.614Z,100866.28
2023-03-06T09:06:16.553Z,100863.53
2023-03-06T09:08:44.602Z,100868.34
2023-03-06T09:11:13.213Z,100869.28
2023-03-06T09:13:40.108Z,100864.09
2023-03-06T09:16:08.129Z,100869.13
2023-03-06T09:18:35.159Z,100870.50
2023-03-06T09:21:01.995Z,100873.63
2023-03-06T09:23:28.564Z,100870.22
2023-03-06T09:25:56.691Z,100867.16
2023-03-06T09:28:24.497Z,100864.22
2023-03-06T09:30:51.932Z,100861.88
2023-03-06T09:33:19.382Z,100861.69
2023-03-06T09:35:52.147Z,100867.88
2023-03-06T09:38:23.042Z,100864.78
2023-03-06T09:40:55.921Z,100861.09
2023-03-06T09:43:30.482Z,100862.72
2023-03-06T09:45:59.273Z,100854.09
2023-03-06T09:48:42.538Z,100856.50
2023-03-06T09:51:16.576Z,100855.00
2023-03-06T09:53:52.063Z,100860.09
2023-03-06T09:56:22.542Z,100852.97
2023-03-06T09:58:53.874Z,100859.13
2023-03-06T10:01:24.363Z,100855.16
2023-03-06T10:04:02.825Z,100858.63
2023-03-06T10:06:33.325Z,100862.88
2023-03-06T10:09:13.129Z,100868.13
2023-03-06T10:11:48.894Z,100861.25
2023-03-06T10:14:30.523Z,100870.00
2023-03-06T10:16:58.511Z,100871.63
2023-03-06T10:19:33.813Z,100866.06
2023-03-06T10:22:07.495Z,100862.66
2023-03-06T10:24:55.099Z,100857.44
2023-03-06T10:27:27.552Z,100854.81
2023-03-06T10:30:23.859Z,100846.91
2023-03-06T10:32:58.607Z,100851.19
2023-03-06T10:35:31.618Z,100852.50
2023-03-06T10:38:17.791Z,100853.81
2023-03-06T10:41:19.101Z,100844.31
2023-03-06T10:44:06.433Z,100853.06
2023-03-06T10:46:37.719Z,100853.31
2023-03-06T10:52:20.695Z,100848.28
2023-03-06T10:54:48.444Z,100841.94
2023-03-06T10:57:25.942Z,100846.19
2023-03-06T10:59:53.663Z,100843.31
2023-03-06T11:02:28.185Z,100842.28
2023-03-06T11:04:56.895Z,100833.53
2023-03-06T11:07:26.444Z,100829.84
2023-03-06T11:09:59.205Z,100822.44
2023-03-06T11:12:30.779Z,100825.88
2023-03-06T11:15:06.564Z,100817.16
2023-03-06T11:17:35.048Z,100814.50
2023-03-06T11:20:22.559Z,100822.41
2023-03-06T11:22:55.105Z,100817.13
2023-03-06T11:25:26.574Z,100807.59
2023-03-06T11:27:58.525Z,100806.00
2023-03-06T11:30:32.478Z,100812.06
2023-03-06T11:33:03.343Z,100803.59
2023-03-06T11:35:44.644Z,100800.69
2023-03-06T11:38:16.885Z,100795.63
2023-03-06T11:40:49.692Z,100793.25
2023-03-06T11:43:25.182Z,100784.22
2023-03-06T11:46:00.447Z,100788.44
2023-03-06T11:48:43.627Z,100788.41
2023-03-06T11:51:24.477Z,100785.47
2023-03-06T11:53:51.965Z,100786.56
2023-03-06T11:56:18.889Z,100786.25
2023-03-06T11:58:51.108Z,100779.09
2023-03-06T12:01:29.423Z,100777.72
2023-03-06T12:04:17.441Z,100773.50
2023-03-06T12:06:58.507Z,100774.00
2023-03-06T12:09:28.540Z,100770.56
2023-03-06T12:12:23.110Z,100765.28
2023-03-06T12:14:58.371Z,100769.25
2023-03-06T12:17:46.757Z,100762.06
2023-03-06T12:20:22.535Z,100762.31
2023-03-06T12:23:15.269Z,100753.09
2023-03-06T12:25:47.319Z,100757.56
2023-03-06T12:28:37.427Z,100758.31
2023-03-06T12:31:19.651Z,100747.75
2023-03-06T12:33:51.643Z,100755.13
2023-03-06T12:36:46.445Z,100752.16
2023-03-06T12:39:35.753Z,100750.84
2023-03-06T12:42:23.007Z,100743.41
2023-03-06T12:45:05.067Z,100743.38
2023-03-06T12:47:38.554Z,100738.06
2023-03-06T12:50:17.260Z,100743.16
2023-03-06T12:52:44.486Z,100739.69
2023-03-06T12:55:16.712Z,100734.19
2023-03-06T12:57:43.478Z,100738.63
2023-03-06T13:00:55.347Z,100724.59
2023-03-06T13:03:44.924Z,100718.72
2023-03-06T13:06:49.780Z,100712.31
2023-03-06T13:09:51.632Z,100710.69
2023-03-06T13:12:27.323Z,100705.66
2023-03-06T13:15:19.938Z,100704.03
2023-03-06T13:17:46.711Z,100702.31
2023-03-06T13:20:13.515Z,100696.28
2023-03-06T13:22:44.270Z,100689.31
2023-03-06T13:25:19.694Z,100686.16
2023-03-06T13:27:52.734Z,100683.44
2023-03-06T13:30:37.065Z,100684.25
2023-03-06T13:33:32.581Z,100677.53
2023-03-06T13:36:00.450Z,100668.25
2023-03-06T13:38:31.777Z,100658.09
2023-03-06T13:41:23.038Z,100653.84
2023-03-06T13:43:53.820Z,100648.50
2023-03-06T13:46:35.695Z,100654.06
2023-03-06T13:49:08.461Z,100649.09
2023-03-06T13:51:49.431Z,100645.59
2023-03-06T13:54:34.504Z,100639.50
2023-03-06T13:57:37.908Z,100642.69
2023-03-06T14:00:15.723Z,100642.09
2023-03-06T14:02:58.193Z,100638.72
2023-03-06T14:05:34.727Z,100635.91
2023-03-06T14:08:09.579Z,100627.13
2023-03-06T14:10:38.535Z,100620.53
2023-03-06T14:13:15.884Z,100628.56
2023-03-06T14:15:48.506Z,100620.28
2023-03-06T14:18:20.610Z,100617.94
2023-03-06T14:21:14.746Z,100615.41
2023-03-06T14:23:43.458Z,100613.09
2023-03-06T14:26:17.749Z,100611.00
2023-03-06T14:28:54.389Z,100602.13
2023-03-06T14:31:22.881Z,100599.81
2023-03-06T14:33:55.291Z,100599.38
2023-03-06T14:36:24.471Z,100600.94
2023-03-06T14:38:56.984Z,100589.69
2023-03-06T14:41:27.998Z,100587.88
2023-03-06T14:44:21.671Z,100582.88
2023-03-06T14:46:51.029Z,100589.19
2023-03-06T14:49:20.234Z,100590.31
2023-03-06T14:52:00.635Z,100588.69
2023-03-06T14:54:33.319Z,100581.63
2023-03-06T14:57:07.781Z,100588.56
2023-03-06T14:59:42.881Z,100588.88
2023-03-06T15:02:17.387Z,100582.31
2023-03-06T15:04:48.117Z,100591.13
2023-03-06T15:07:18.964Z,100589.03
2023-03-06T15:09:49.711Z,100578.53
2023-03-06T15:12:22.806Z,100571.69
2023-03-06T15:15:28.861Z,100561.09
2023-03-06T15:17:57.115Z,100553.38
2023-03-06T15:20:46.055Z,100561.31
2023-03-06T15:23:19.398Z,100557.63
2023-03-06T15:25:58.654Z,100553.44
2023-03-06T15:28:30.607Z,100547.28
2023-03-06T15:31:21.156Z,100547.31
2023-03-06T15:34:13.177Z,100553.75
2023-03-06T15:36:49.468Z,100553.78
2023-03-06T15:39:38.867Z,100550.34
2023-03-06T15:42:22.147Z,100542.94
2023-03-06T15:44:57.737Z,100549.31
2023-03-06T15:47:24.689Z,100545.13
2023-03-06T15:49:53.253Z,100544.63
2023-03-06T15:52:21.408Z,100528.22
2023-03-06T15:54:48.310Z,100528.81
2023-03-06T15:57:26.956Z,100531.75
2023-03-06T15:59:53.996Z,100524.03
2023-03-06T16:02:22.868Z,100512.94
2023-03-06T16:04:49.713Z,100518.75
2023-03-06T16:07:16.497Z,100516.31
2023-03-06T16:09:43.667Z,100522.72
2023-03-06T16:12:18.196Z,100514.81
2023-03-06T16:14:45.722Z,100514.56
2023-03-06T16:17:12.957Z,100510.16
2023-03-06T16:19:40.027Z,100510.72
2023-03-06T16:22:06.783Z,100498.06
2023-03-06T16:24:33.394Z,100512.69
2023-03-06T16:27:02.146Z,100508.22
2023-03-06T16:29:29.834Z,100510.88
2023-03-06T16:31:59.025Z,100514.63
2023-03-06T16:34:27.114Z,100511.75
2023-03-06T16:36:53.670Z,100499.63
2023-03-06T16:39:22.937Z,100500.97
2023-03-06T16:41:50.542Z,100487.78
2023-03-06T16:44:17.046Z,100493.59
2023-03-06T16:46:47.085Z,100490.97
2023-03-06T16:49:19.096Z,100488.59
2023-03-06T16:51:45.827Z,100479.06
2023-03-06T16:54:12.779Z,100487.28
2023-03-06T16:56:39.493Z,100481.47
2023-03-06T16:59:06.364Z,100484.13
2023-03-06T17:01:34.340Z,100475.66
2023-03-06T17:04:01.357Z,100478.81
2023-03-06T17:06:28.478Z,100475.13
2023-03-06T17:08:55.429Z,100471.97
2023-03-06T17:11:22.018Z,100474.34
2023-03-06T17:13:49.318Z,100465.91
2023-03-06T17:16:16.515Z,100456.13
2023-03-06T17:18:44.850Z,100451.38
2023-03-06T17:21:12.574Z,100445.03
2023-03-06T17:23:39.336Z,100445.03
2023-03-06T17:26:13.717Z,100436.59
2023-03-06T17:28:41.422Z,100441.59
2023-03-06T17:31:23.055Z,100445.03
2023-03-06T17:33:51.583Z,100436.31
2023-03-06T17:36:19.464Z,100433.69
2023-03-06T17:38:46.264Z,100428.13
2023-03-06T17:41:13.870Z,100426.53
2023-03-06T17:43:41.197Z,100428.66
2023-03-06T17:46:10.519Z,100420.72
2023-03-06T17:48:37.427Z,100419.69
2023-03-06T17:51:04.889Z,100421.53
2023-03-06T17:53:31.641Z,100423.41
2023-03-06T17:55:58.606Z,100413.34
2023-03-06T17:58:26.605Z,100416.53
2023-03-06T18:00:53.235Z,100411.53
2023-03-06T18:03:19.758Z,100415.22
2023-03-06T18:05:46.394Z,100405.72
2023-03-06T18:08:13.123Z,100404.38
2023-03-06T18:10:40.984Z,100408.63
2023-03-06T18:13:08.710Z,100412.56
2023-03-06T18:15:38.933Z,100402.56
2023-03-06T18:18:05.652Z,100404.41
2023-03-06T18:20:34.486Z,100402.31
2023-03-06T18:23:04.208Z,100392.28
2023-03-06T18:25:32.389Z,100397.81
2023-03-06T18:27:59.007Z,100395.97
2023-03-06T18:30:25.830Z,100387.78
2023-03-06T18:32:52.442Z,100386.50
2023-03-06T18:35:19.246Z,100385.44
2023-03-06T18:37:46.082Z,100375.69
2023-03-06T18:40:13.622Z,100370.38
2023-03-06T18:42:40.429Z,100356.91
2023-03-06T18:45:07.742Z,100365.63
2023-03-06T18:47:34.347Z,100352.97
2023-03-06T18:50:02.972Z,100366.16
2023-03-06T18:52:29.647Z,100345.84
2023-03-06T18:54:56.588Z,100353.50
2023-03-06T18:57:23.354Z,100341.63
2023-03-06T18:59:50.116Z,100343.22
2023-03-06T19:02:16.979Z,100338.47
2023-03-06T19:04:43.699Z,100340.06
2023-03-06T19:07:10.340Z,100334.50
2023-03-06T19:09:37.069Z,100327.13
2023-03-06T19:12:03.909Z,100326.06
2023-03-06T19:14:30.607Z,100316.84
2023-03-06T19:16:57.437Z,100319.22
2023-03-06T19:19:28.956Z,100319.50
2023-03-06T19:21:58.224Z,100311.84
2023-03-06T19:24:25.009Z,100303.91
2023-03-06T19:26:52.127Z,100302.84
2023-03-06T19:29:18.633Z,100292.59
2023-03-06T19:31:45.249Z,100301.81
2023-03-06T19:34:11.987Z,100296.00
2023-03-06T19:36:41.022Z,100288.63
2023-03-06T19:39:08.142Z,100291.00
2023-03-06T19:41:35.249Z,100286.53
2023-03-06T19:44:03.379Z,100277.28
2023-03-06T19:46:30.191Z,100278.59
2023-03-06T19:48:59.586Z,100273.88
2023-03-06T19:51:27.297Z,100262.28
2023-03-06T19:53:54.411Z,100263.06
2023-03-06T19:56:26.886Z,100263.31
2023-03-06T19:58:54.048Z,100252.50
2023-03-06T20:01:23.239Z,100244.88
2023-03-06T20:03:52.135Z,100239.59
2023-03-06T20:06:20.083Z,100231.69
2023-03-06T20:08:51.190Z,100226.97
2023-03-06T20:11:21.600Z,100222.22
2023-03-06T20:13:56.961Z,100220.63
2023-03-06T20:16:23.682Z,100222.47
2023-03-06T20:18:50.997Z,100220.34
2023-03-06T20:21:18.531Z,100203.75
2023-03-06T20:23:45.125Z,100202.72
2023-03-06T20:26:13.592Z,100206.09
2023-03-06T20:28:41.869Z,100200.06
2023-03-06T20:31:11.487Z,100189.25
2023-03-06T20:33:38.949Z,100181.06
2023-03-06T20:36:12.996Z,100177.13
2023-03-06T20:38:47.374Z,100165.81
2023-03-06T20:41:22.978Z,100177.13
2023-03-06T20:43:50.174Z,100175.00
2023-03-06T20:46:17.328Z,100167.59
2023-03-06T20:48:44.172Z,100155.72
2023-03-06T20:51:20.070Z,100143.38
2023-03-06T20:53:49.235Z,100151.53
2023-03-06T20:56:18.263Z,100148.88
2023-03-06T20:58:45.047Z,100138.31
2023-03-06T21:01:23.162Z,100131.97
2023-03-06T21:03:50.981Z,100131.97
2023-03-06T21:06:17.676Z,100127.00
2023-03-06T21:08:44.630Z,100131.75
2023-03-06T21:11:11.217Z,100116.72
2023-03-06T21:13:38.378Z,100128.59
2023-03-06T21:16:12.166Z,100119.91
2023-03-06T21:18:45.701Z,100118.59
2023-03-06T21:21:28.125Z,100104.66
2023-03-06T21:23:58.278Z,100108.09
2023-03-06T21:26:28.537Z,100105.72
2023-03-06T21:29:02.815Z,100106.50
2023-03-06T21:31:34.668Z,100102.56
2023-03-06T21:34:04.526Z,100097.81
2023-03-06T21:36:31.528Z,100098.09
2023-03-06T21:38:59.071Z,100098.59
2023-03-06T21:41:31.413Z,100093.63
2023-03-06T21:44:05.004Z,100091.50
2023-03-06T21:46:35.653Z,100089.91
2023-03-06T21:49:05.415Z,100081.47
2023-03-06T21:51:32.145Z,100069.13
2023-03-06T21:53:59.248Z,100088.88
2023-03-06T21:56:28.401Z,100096.25
2023-03-06T21:59:00.124Z,100091.25
2023-03-06T22:01:31.054Z,100094.97
2023-03-06T22:04:01.160Z,100086.78
2023-03-06T22:06:31.771Z,100094.44
2023-03-06T22:09:01.910Z,100090.72
2023-03-06T22:11:31.457Z,100090.22
2023-03-06T22:14:02.674Z,100080.72
2023-03-06T22:16:30.081Z,100079.16
2023-03-06T22:18:57.563Z,100072.31
2023-03-06T22:21:24.287Z,100070.72
2023-03-06T22:23:53.884Z,100070.97
2023-03-06T22:26:21.094Z,100067.56
2023-03-06T22:28:47.768Z,100073.91
2023-03-06T22:31:26.213Z,100070.72
2023-03-06T22:33:57.827Z,100066.50
2023-03-06T22:36:25.392Z,100062.84
2023-03-06T22:38:57.280Z,100059.91
2023-03-06T22:41:25.736Z,100065.47
2023-03-06T22:43:57.004Z,100065.47
2023-03-06T22:46:24.390Z,100062.03
2023-03-06T22:48:51.367Z,100062.56
2023-03-06T22:51:21.100Z,100056.78
2023-03-06T22:53:48.877Z,100057.03
2023-03-06T22:56:18.375Z,100049.41
2023-03-06T22:58:45.047Z,100058.34
2023-03-06T23:01:20.269Z,100055.19
2023-03-06T23:03:49.190Z,100059.69
2023-03-06T23:06:18.862Z,100051.78
2023-03-06T23:08:49.767Z,100043.88
2023-03-06T23:11:17.731Z,100042.03
2023-03-06T23:13:44.370Z,100039.13
2023-03-06T23:16:11.298Z,100058.59
2023-03-06T23:18:39.244Z,100058.91
2023-03-06T23:21:09.710Z,100050.47
2023-03-06T23:23:37.279Z,100039.94
2023-03-06T23:26:04.975Z,100039.94
2023-03-06T23:28:32.251Z,100039.94
2023-03-06T23:30:59.821Z,100047.31
2023-03-06T23:33:26.402Z,100045.72
2023-03-06T23:35:53.016Z,100036.78
2023-03-06T23:38:19.653Z,100036.78
2023-03-06T23:40:46.216Z,100038.59
2023-03-06T23:43:12.840Z,100036.25
2023-03-06T23:45:39.391Z,100039.41
2023-03-06T23:48:07.975Z,100034.41
2023-03-06T23:50:34.687Z,100036.25
2023-03-06T23:53:01.464Z,100033.84
2023-03-06T23:55:28.197Z,100038.09
2023-03-06T23:57:54.962Z,100037.84
